createdAt,value
2022-11-20T00:04:24.572Z,1.57
2022-11-20T00:09:29.030Z,1.57
2022-11-20T00:14:31.831Z,1.55
2022-11-20T00:19:34.381Z,1.5
2022-11-20T00:24:41.737Z,1.55
2022-11-20T00:29:39.734Z,1.54
2022-11-20T00:34:42.511Z,1.51
2022-11-20T00:44:48.051Z,1.45
2022-11-20T00:54:53.343Z,1.39
2022-11-20T00:59:55.924Z,1.35
2022-11-20T01:15:03.517Z,1.28
2022-11-20T01:25:08.943Z,1.33
2022-11-20T01:30:11.707Z,1.31
2022-11-20T01:35:14.180Z,1.32
2022-11-20T01:40:17.009Z,1.31
2022-11-20T01:45:22.955Z,1.26
2022-11-20T01:50:25.631Z,1.23
2022-11-20T02:00:34.256Z,1.26
2022-11-20T02:05:36.877Z,1.22
2022-11-20T02:15:42.651Z,1.26
2022-11-20T02:25:47.855Z,1.3
2022-11-20T02:35:52.742Z,1.17
2022-11-20T02:40:55.989Z,1.15
2022-11-20T02:45:58.223Z,1.12
2022-11-20T02:51:01.054Z,1.14
2022-11-20T03:01:06.431Z,1.1
2022-11-20T03:06:08.979Z,1.1
2022-11-20T03:16:14.056Z,1.03
2022-11-20T03:21:16.626Z,1.02
2022-11-20T03:31:22.041Z,1.01
2022-11-20T03:36:24.718Z,1.03
2022-11-20T03:41:27.648Z,0.98
2022-11-20T03:46:30.369Z,1.03
2022-11-20T03:51:32.958Z,0.98
2022-11-20T03:56:35.493Z,0.92
2022-11-20T04:01:38.471Z,0.89
2022-11-20T04:06:40.845Z,0.75
2022-11-20T04:11:43.642Z,0.72
2022-11-20T04:16:46.231Z,0.7
2022-11-20T04:21:48.732Z,0.73
2022-11-20T04:26:51.320Z,0.74
2022-11-20T04:36:56.778Z,0.69
2022-11-20T04:41:59.468Z,0.77
2022-11-20T04:47:02.379Z,0.82
2022-11-20T04:52:05.035Z,0.9
2022-11-20T04:57:11.422Z,0.9
2022-11-20T05:02:10.368Z,0.84
2022-11-20T05:12:15.456Z,0.77
2022-11-20T05:27:23.378Z,0.87
2022-11-20T05:32:26.275Z,0.89
2022-11-20T05:37:31.087Z,0.9
2022-11-20T05:42:33.968Z,0.93
2022-11-20T05:47:39.596Z,0.94
2022-11-20T05:52:42.339Z,1
2022-11-20T05:57:45.010Z,1.05
2022-11-20T06:02:47.904Z,1.1
2022-11-20T06:07:50.666Z,1.16
2022-11-20T06:17:55.990Z,1.05
2022-11-20T06:33:03.606Z,0.88
2022-11-20T06:38:06.453Z,0.81
2022-11-20T06:43:09.092Z,0.82
2022-11-20T06:48:11.560Z,0.74
2022-11-20T06:53:14.394Z,0.77
2022-11-20T06:58:16.971Z,0.86
2022-11-20T07:03:19.709Z,0.85
2022-11-20T07:08:22.494Z,0.81
2022-11-20T07:13:25.222Z,0.88
2022-11-20T07:18:27.932Z,0.92
2022-11-20T07:23:30.759Z,0.88
2022-11-20T07:28:33.622Z,0.92
2022-11-20T07:33:36.546Z,0.97
2022-11-20T07:43:41.949Z,1.02
2022-11-20T07:48:50.418Z,1
2022-11-20T07:53:57.218Z,1.04
2022-11-20T07:59:00.093Z,1.05
2022-11-20T08:04:02.563Z,0.92
2022-11-20T08:09:05.213Z,0.98
2022-11-20T08:14:07.817Z,1.03
2022-11-20T08:19:10.539Z,1.3
2022-11-20T08:29:17.754Z,1.15
2022-11-20T08:34:20.311Z,1.21
2022-11-20T08:39:22.983Z,1.14
2022-11-20T08:44:25.718Z,1.19
2022-11-20T08:49:28.303Z,1.38
2022-11-20T08:54:30.918Z,1.34
2022-11-20T09:04:36.076Z,1.44
2022-11-20T09:09:38.662Z,1.45
2022-11-20T09:19:44.003Z,1.63
2022-11-20T09:24:46.528Z,1.73
2022-11-20T09:29:49.495Z,1.79
2022-11-20T09:34:52.175Z,1.77
2022-11-20T09:39:54.942Z,1.67
2022-11-20T09:44:57.740Z,1.75
2022-11-20T09:50:00.420Z,1.88
2022-11-20T09:55:03.206Z,1.93
2022-11-20T10:00:05.945Z,2.01
2022-11-20T10:05:08.709Z,2.09
2022-11-20T10:10:11.306Z,1.95
2022-11-20T10:15:13.984Z,1.88
2022-11-20T10:20:22.721Z,2.06
2022-11-20T10:25:25.458Z,2.24
2022-11-20T10:30:28.069Z,2.18
2022-11-20T10:35:30.787Z,2.09
2022-11-20T10:40:33.629Z,2.31
2022-11-20T10:45:36.489Z,2.53
2022-11-20T10:50:39.359Z,2.72
2022-11-20T10:55:42.092Z,2.56
2022-11-20T11:00:45.547Z,2.42
2022-11-20T11:05:48.251Z,2.59
2022-11-20T11:10:50.937Z,2.68
2022-11-20T11:15:53.707Z,2.66
2022-11-20T11:20:57.018Z,2.72
2022-11-20T11:25:59.727Z,2.85
2022-11-20T11:31:04.284Z,2.66
2022-11-20T11:36:06.721Z,2.56
2022-11-20T11:41:09.334Z,2.56
2022-11-20T11:46:11.884Z,2.39
2022-11-20T11:51:17.870Z,2.41
2022-11-20T11:56:23.840Z,2.43
2022-11-20T12:01:31.277Z,2.44
2022-11-20T12:06:41.553Z,2.75
2022-11-20T12:11:47.444Z,2.82
2022-11-20T12:16:55.830Z,2.69
2022-11-20T12:22:07.488Z,2.67
2022-11-20T12:27:09.494Z,2.78
2022-11-20T12:37:45.842Z,2.73
2022-11-20T12:42:54.745Z,2.6
2022-11-20T12:48:03.834Z,2.47
2022-11-20T13:04:10.707Z,2.35
2022-11-20T13:09:14.192Z,2.25
2022-11-20T13:14:20.281Z,2.24
2022-11-20T13:19:27.775Z,2.31
2022-11-20T13:24:34.953Z,2.36
2022-11-20T13:29:44.487Z,2.35
2022-11-20T13:34:50.894Z,2.4
2022-11-20T13:39:56.762Z,2.67
2022-11-20T13:45:07.851Z,2.62
2022-11-20T13:55:19.063Z,2.54
2022-11-20T14:05:54.611Z,2.44
2022-11-20T14:11:00.377Z,2.4
2022-11-20T14:16:06.442Z,2.22
2022-11-20T14:21:12.557Z,2.23
2022-11-20T14:26:16.212Z,2.29
2022-11-20T14:31:21.896Z,2.27
2022-11-20T14:36:28.109Z,2.3
2022-11-20T14:41:34.371Z,2.09
2022-11-20T14:46:41.059Z,2.07
2022-11-20T14:51:48.701Z,2.01
2022-11-20T14:56:54.771Z,1.93
2022-11-20T17:18:33.652Z,0.9
2022-11-20T17:23:41.289Z,0.88
2022-11-20T17:28:45.570Z,0.93
2022-11-20T17:33:49.352Z,1.01
2022-11-20T17:38:55.393Z,0.99
2022-11-20T17:44:01.249Z,1.11
2022-11-20T17:49:10.601Z,1.17
2022-11-20T17:54:16.682Z,1.25
2022-11-20T17:59:22.341Z,1.06
2022-11-20T18:04:28.923Z,0.99
2022-11-20T18:09:34.602Z,0.83
2022-11-20T18:14:40.717Z,0.66
2022-11-20T18:20:06.992Z,0.58
2022-11-20T18:30:21.377Z,0.43
2022-11-20T18:35:28.884Z,0.31
2022-11-20T18:40:35.151Z,0.28
2022-11-20T18:45:39.288Z,0.18
2022-11-20T18:50:43.600Z,0.09
2022-11-20T18:55:51.925Z,0.13
2022-11-20T19:00:58.187Z,0.05
2022-11-20T19:06:04.109Z,0
2022-11-20T19:21:44.426Z,-0.09
2022-11-20T19:26:51.477Z,-0.14
2022-11-20T19:31:59.022Z,-0.11
2022-11-20T19:37:06.404Z,-0.26
2022-11-20T19:52:53.106Z,-0.14
2022-11-20T19:58:01.282Z,-0.07
2022-11-20T20:08:41.805Z,0.2
2022-11-20T20:13:47.936Z,0.03
2022-11-20T20:24:24.801Z,-0.25
2022-11-20T20:29:31.847Z,-0.36
2022-11-20T20:40:12.214Z,-0.34
2022-11-20T20:45:13.876Z,-0.45
2022-11-20T20:50:20.485Z,-0.5
2022-11-20T21:00:56.914Z,-0.56
2022-11-20T21:06:04.743Z,-0.6
2022-11-20T21:11:10.728Z,-0.66
2022-11-20T21:16:17.653Z,-0.79
2022-11-20T21:21:24.116Z,-0.86
2022-11-20T21:43:00.250Z,-0.85
2022-11-20T21:48:07.081Z,-0.92
2022-11-20T21:53:10.526Z,-1
2022-11-20T21:58:16.602Z,-1
2022-11-20T22:03:22.980Z,-0.98
2022-11-20T22:08:31.481Z,-0.98
2022-11-20T22:13:37.378Z,-1.03
2022-11-20T22:18:43.517Z,-0.94
2022-11-20T22:23:53.565Z,-0.98
2022-11-20T22:28:59.732Z,-1.14
2022-11-20T22:34:06.021Z,-1.14
2022-11-20T22:39:14.313Z,-1.19
2022-11-20T22:44:23.582Z,-1.16
2022-11-20T22:49:29.443Z,-0.93
2022-11-20T22:54:39.274Z,-1.23
2022-11-20T22:59:48.511Z,-1.28
2022-11-20T23:04:56.819Z,-1.22
2022-11-20T23:10:02.840Z,-1.11
2022-11-20T23:15:09.294Z,-0.95
2022-11-20T23:20:18.674Z,-0.89
2022-11-20T23:25:25.105Z,-0.82
2022-11-20T23:30:31.380Z,-0.72
2022-11-20T23:35:37.641Z,-0.5
2022-11-20T23:40:43.597Z,-0.47
2022-11-20T23:45:49.687Z,-0.52
2022-11-20T23:50:55.975Z,-0.52
2022-11-20T23:56:02.009Z,-0.57
